Time;durP1;ratioP1;P1;durP2;ratioP2;P2;SDS_P1;SDS_P2;PMS_P1;PMS_P2;Temp;Humidity;BMP_temperature;BMP_pressure;BME280_temperature;BME280_humidity;BME280_pressure;Samples;Min_cycle;Max_cycle;Signal;HPM_P1;HPM_P2
2022/01/16 00:06:25;;;;;;;76.20;37.28;;;1.90;99.90;;;;;;5087002;28;20390;-78
2022/01/16 00:08:50;;;;;;;74.43;38.65;;;1.80;99.90;;;;;;5087972;28;20048;-77
2022/01/16 00:11:16;;;;;;;83.10;37.35;;;1.90;99.90;;;;;;5088213;28;20036;-77
2022/01/16 00:13:41;;;;;;;86.40;42.65;;;1.80;99.90;;;;;;5088410;28;20482;-77
2022/01/16 00:16:12;;;;;;;82.50;42.83;;;1.80;99.90;;;;;;5086495;28;20040;-78
2022/01/16 00:18:49;;;;;;;79.93;40.58;;;1.90;99.90;;;;;;5086565;28;20508;-78
2022/01/16 00:21:19;;;;;;;71.63;38.53;;;1.90;99.90;;;;;;5087035;28;20047;-77
2022/01/16 00:23:45;;;;;;;72.97;40.13;;;1.80;99.90;;;;;;5068994;28;20127;-76
2022/01/16 00:26:11;;;;;;;76.22;42.15;;;1.90;99.90;;;;;;5091046;28;20554;-77
2022/01/16 00:28:36;;;;;;;76.80;40.53;;;1.90;99.90;;;;;;5090121;28;20056;-78
2022/01/16 00:31:02;;;;;;;91.32;45.83;;;1.90;99.90;;;;;;5089565;28;20044;-77
2022/01/16 00:33:28;;;;;;;81.60;43.15;;;1.90;99.90;;;;;;5071873;28;20055;-77
2022/01/16 00:35:53;;;;;;;84.05;44.05;;;1.90;99.90;;;;;;5090628;28;20043;-76
2022/01/16 00:38:19;;;;;;;79.05;43.22;;;1.80;99.90;;;;;;5090195;28;20526;-78
2022/01/16 00:40:44;;;;;;;85.82;41.63;;;1.80;99.90;;;;;;5055573;28;20097;-76
2022/01/16 00:43:10;;;;;;;86.38;45.47;;;1.80;99.90;;;;;;5072310;28;20063;-77
2022/01/16 00:45:36;;;;;;;88.50;44.67;;;1.80;99.90;;;;;;5088951;28;20151;-78
2022/01/16 00:48:03;;;;;;;83.85;46.28;;;1.90;99.90;;;;;;5089997;28;20122;-78
2022/01/16 00:50:30;;;;;;;82.30;44.50;;;1.90;99.90;;;;;;5089999;28;20040;-78
2022/01/16 00:52:56;;;;;;;82.85;40.97;;;1.90;99.90;;;;;;5090069;28;20044;-78
2022/01/16 00:55:22;;;;;;;81.57;45.63;;;1.80;99.90;;;;;;5089766;28;20040;-76
2022/01/16 00:57:48;;;;;;;83.13;42.22;;;2.00;99.90;;;;;;5071698;28;20050;-77
2022/01/16 01:00:14;;;;;;;77.63;41.28;;;1.90;99.90;;;;;;5088533;28;20097;-77
2022/01/16 01:02:39;;;;;;;82.18;43.22;;;1.90;99.90;;;;;;5090182;28;20375;-78
2022/01/16 01:05:07;;;;;;;81.38;42.05;;;2.00;99.90;;;;;;5090094;28;20119;-78
2022/01/16 01:07:33;;;;;;;86.45;46.30;;;2.00;99.90;;;;;;5089601;28;20109;-78
2022/01/16 01:09:59;;;;;;;73.68;39.65;;;2.00;99.90;;;;;;5090444;28;20077;-76
2022/01/16 01:12:29;;;;;;;79.53;40.88;;;2.00;99.90;;;;;;5071595;28;20040;-77
2022/01/16 01:15:08;;;;;;;;;;;2.00;99.90;;;;;;5072303;28;20098;-79
2022/01/16 01:17:43;;;;;;;76.93;37.03;;;2.00;99.90;;;;;;5089198;28;19924;-78
2022/01/16 01:20:11;;;;;;;82.93;42.58;;;2.10;99.90;;;;;;5089726;28;20036;-77
2022/01/16 01:22:36;;;;;;;77.65;42.13;;;2.00;99.90;;;;;;5089228;28;20051;-77
2022/01/16 01:25:02;;;;;;;83.18;42.35;;;2.00;99.90;;;;;;5089597;28;20044;-78
2022/01/16 01:27:31;;;;;;;78.13;39.13;;;2.00;99.90;;;;;;5071190;28;20043;-77
2022/01/16 01:30:02;;;;;;;83.68;38.70;;;2.10;99.90;;;;;;5071596;28;20379;-78
2022/01/16 01:32:28;;;;;;;82.82;42.88;;;2.10;99.90;;;;;;5087940;28;20044;-78
2022/01/16 01:34:54;;;;;;;78.93;41.05;;;2.00;99.90;;;;;;5071404;28;20402;-78
2022/01/16 01:37:19;;;;;;;85.70;42.25;;;2.10;99.90;;;;;;5088157;28;20040;-78
2022/01/16 01:39:45;;;;;;;79.18;43.47;;;2.00;99.90;;;;;;5071425;28;20047;-78
2022/01/16 01:42:12;;;;;;;85.78;41.65;;;2.10;99.90;;;;;;5089414;28;20131;-78
2022/01/16 01:52:55;;;;;;;94.43;45.35;;;2.00;99.90;;;;;;5088791;28;20044;-78
2022/01/16 01:55:21;;;;;;;94.60;42.50;;;2.00;99.90;;;;;;5088622;28;20504;-78
2022/01/16 01:57:47;;;;;;;91.97;44.83;;;2.00;99.90;;;;;;5088659;28;20529;-78
2022/01/16 02:00:17;;;;;;;92.38;43.80;;;2.10;99.90;;;;;;5088122;28;20040;-78
2022/01/16 02:05:31;;;;;;;100.55;42.20;;;2.10;99.90;;;;;;5088402;28;20275;-78
2022/01/16 02:07:57;;;;;;;97.95;45.78;;;2.10;99.90;;;;;;5070617;28;20240;-78
2022/01/16 02:10:23;;;;;;;97.82;42.88;;;2.00;99.90;;;;;;5088507;28;20097;-77
2022/01/16 02:12:56;;;;;;;108.45;44.90;;;2.00;99.90;;;;;;5070269;28;20099;-76
2022/01/16 02:32:02;;;;;;;107.80;43.80;;;2.00;99.90;;;;;;5087125;28;20422;-77
2022/01/16 02:34:33;;;;;;;108.32;42.65;;;1.90;99.90;;;;;;5070259;28;20048;-78
2022/01/16 02:37:02;;;;;;;112.90;43.03;;;2.00;99.90;;;;;;5089049;28;20036;-78
2022/01/16 02:39:30;;;;;;;106.88;42.70;;;2.00;99.90;;;;;;5087888;28;20123;-77
2022/01/16 02:41:58;;;;;;;110.75;45.88;;;2.00;99.90;;;;;;5088338;28;20036;-77
2022/01/16 02:46:57;;;;;;;107.32;40.28;;;2.00;99.90;;;;;;5068892;28;20092;-78
2022/01/16 02:49:34;;;;;;;93.35;41.92;;;2.00;99.90;;;;;;5087655;28;20036;-78
2022/01/16 02:52:05;;;;;;;90.82;40.20;;;2.00;99.90;;;;;;5087993;28;20044;-76
2022/01/16 02:54:35;;;;;;;105.38;46.20;;;2.00;99.90;;;;;;5087501;28;20505;-78
2022/01/16 02:57:02;;;;;;;103.47;41.92;;;2.00;99.90;;;;;;5088311;28;20071;-78
2022/01/16 02:59:28;;;;;;;103.00;43.63;;;2.10;99.90;;;;;;5087888;28;20040;-78
2022/01/16 03:01:54;;;;;;;106.40;44.60;;;2.10;99.90;;;;;;5087640;28;20074;-78
2022/01/16 03:04:20;;;;;;;103.25;42.40;;;2.10;99.90;;;;;;5087784;28;20048;-79
2022/01/16 03:06:46;;;;;;;104.72;44.92;;;2.00;99.90;;;;;;5088285;28;20164;-77
2022/01/16 03:09:12;;;;;;;105.47;45.40;;;2.10;99.90;;;;;;5088720;28;20036;-78
2022/01/16 03:11:42;;;;;;;92.13;38.55;;;2.00;99.90;;;;;;5069663;28;20062;-77
2022/01/16 03:14:13;;;;;;;111.55;43.63;;;2.00;99.90;;;;;;5069735;28;20047;-78
2022/01/16 03:16:42;;;;;;;112.60;43.75;;;2.10;99.90;;;;;;5087413;28;20529;-79
2022/01/16 03:21:55;;;;;;;114.25;43.53;;;2.10;99.90;;;;;;5070386;28;20081;-78
2022/01/16 03:24:24;;;;;;;102.20;45.97;;;2.10;99.90;;;;;;5087451;28;20043;-78
2022/01/16 03:26:52;;;;;;;108.05;42.17;;;2.20;99.90;;;;;;5087772;28;20044;-78
2022/01/16 03:29:17;;;;;;;110.13;42.50;;;2.20;99.90;;;;;;5087320;28;20135;-78
2022/01/16 03:31:43;;;;;;;107.05;43.75;;;2.20;99.90;;;;;;5087206;28;20139;-78
2022/01/16 03:34:08;;;;;;;129.15;51.15;;;2.30;99.90;;;;;;5069541;28;20472;-79
2022/01/16 03:36:34;;;;;;;125.18;48.67;;;2.30;99.90;;;;;;5069809;28;20040;-78
2022/01/16 03:39:00;;;;;;;101.10;41.35;;;2.30;99.90;;;;;;5087767;28;20562;-77
2022/01/16 03:41:29;;;;;;;128.98;49.25;;;2.30;99.90;;;;;;5069166;28;20478;-77
2022/01/16 03:43:58;;;;;;;127.80;43.58;;;2.20;99.90;;;;;;5086986;28;20052;-78
2022/01/16 03:46:25;;;;;;;99.72;40.95;;;2.30;99.90;;;;;;5086153;28;20509;-78
2022/01/16 03:48:50;;;;;;;118.85;47.92;;;2.20;99.90;;;;;;5087523;28;20092;-77
2022/01/16 03:51:16;;;;;;;148.60;49.33;;;2.20;99.90;;;;;;5087639;28;20040;-77
2022/01/16 03:53:44;;;;;;;123.55;45.90;;;2.20;99.90;;;;;;5088042;28;20040;-77
2022/01/16 03:56:09;;;;;;;121.78;48.25;;;2.30;99.90;;;;;;5069537;28;20248;-78
2022/01/16 03:58:35;;;;;;;129.35;48.00;;;2.40;99.90;;;;;;5087361;28;20051;-78
2022/01/16 04:01:01;;;;;;;134.13;50.42;;;2.30;99.90;;;;;;5090647;28;20040;-76
2022/01/16 04:03:26;;;;;;;122.25;50.15;;;2.40;99.90;;;;;;5090837;28;20115;-78
2022/01/16 04:05:53;;;;;;;127.93;49.25;;;2.50;99.90;;;;;;5073490;28;20493;-77
2022/01/16 04:08:18;;;;;;;133.25;48.65;;;2.50;99.90;;;;;;5091240;28;20032;-78
2022/01/16 04:10:44;;;;;;;131.32;50.97;;;2.40;99.90;;;;;;5091274;28;20047;-77
2022/01/16 04:13:11;;;;;;;126.38;47.05;;;2.50;99.90;;;;;;5091553;28;20173;-78
2022/01/16 04:15:37;;;;;;;135.40;49.60;;;2.50;99.90;;;;;;5090193;28;20047;-78
2022/01/16 04:18:05;;;;;;;143.55;52.33;;;2.50;99.90;;;;;;5091289;28;20047;-77
2022/01/16 04:20:32;;;;;;;122.15;46.78;;;2.60;99.90;;;;;;5090883;28;20103;-78
2022/01/16 04:22:57;;;;;;;130.85;52.10;;;2.70;99.90;;;;;;5091063;28;20043;-78
2022/01/16 04:25:23;;;;;;;123.22;50.72;;;2.60;99.90;;;;;;5090763;28;20033;-78
2022/01/16 04:27:49;;;;;;;145.63;51.72;;;2.60;99.90;;;;;;5091112;28;20052;-79
2022/01/16 04:30:15;;;;;;;134.48;50.50;;;2.60;99.90;;;;;;5090123;28;20044;-78
2022/01/16 04:32:40;;;;;;;129.48;52.42;;;2.60;99.90;;;;;;5091176;28;20101;-78
2022/01/16 04:35:06;;;;;;;140.70;52.40;;;2.80;99.90;;;;;;5072679;28;20417;-77
2022/01/16 04:37:32;;;;;;;139.52;52.17;;;2.70;99.90;;;;;;5090416;28;20127;-77
2022/01/16 04:40:03;;;;;;;151.27;52.88;;;2.70;99.90;;;;;;5073565;28;20332;-78
2022/01/16 04:45:13;;;;;;;135.30;49.17;;;2.80;99.90;;;;;;5089803;28;20534;-73
2022/01/16 04:47:39;;;;;;;143.90;53.00;;;2.70;99.90;;;;;;5090832;28;20054;-79
2022/01/16 04:50:06;;;;;;;151.95;56.63;;;2.80;99.90;;;;;;5091591;28;20040;-82
2022/01/16 04:52:32;;;;;;;158.10;57.58;;;2.80;99.90;;;;;;5091350;28;20047;-78
2022/01/16 04:54:57;;;;;;;154.38;58.17;;;2.80;99.90;;;;;;5091160;28;20040;-78
2022/01/16 04:57:23;;;;;;;152.63;56.70;;;2.80;99.90;;;;;;5089793;28;20076;-78
2022/01/16 04:59:48;;;;;;;166.07;59.15;;;2.90;99.90;;;;;;5071071;28;20097;-79
2022/01/16 05:02:15;;;;;;;158.23;52.83;;;2.90;99.90;;;;;;5071843;28;20430;-77
2022/01/16 05:04:40;;;;;;;159.30;58.20;;;2.90;99.90;;;;;;5072518;28;20051;-79
2022/01/16 05:07:06;;;;;;;168.43;57.55;;;2.80;99.90;;;;;;5089924;28;20040;-78
2022/01/16 05:09:32;;;;;;;177.23;60.10;;;2.90;99.90;;;;;;5090704;28;20377;-78
2022/01/16 05:12:01;;;;;;;178.88;64.03;;;2.80;99.90;;;;;;5088875;28;20482;-77
2022/01/16 05:17:10;;;;;;;195.88;57.92;;;2.90;99.90;;;;;;5071708;28;20087;-79
2022/01/16 05:19:37;;;;;;;195.73;65.88;;;2.90;99.90;;;;;;5089438;28;20505;-77
2022/01/16 05:22:03;;;;;;;167.10;61.67;;;3.10;99.90;;;;;;5089460;28;20682;-80
2022/01/16 05:24:32;;;;;;;179.52;58.25;;;3.10;99.90;;;;;;5089869;28;20036;-78
2022/01/16 05:26:58;;;;;;;169.95;57.92;;;3.10;99.90;;;;;;5072362;28;20047;-78
2022/01/16 05:29:24;;;;;;;161.27;54.58;;;3.10;99.90;;;;;;5089315;28;20036;-74
2022/01/16 05:31:49;;;;;;;178.60;59.17;;;3.00;99.90;;;;;;5088794;28;20402;-79
2022/01/16 05:34:18;;;;;;;186.23;62.10;;;3.10;99.90;;;;;;5089018;28;20071;-78
2022/01/16 05:36:45;;;;;;;188.52;62.45;;;3.10;99.90;;;;;;5089497;28;20429;-75
2022/01/16 05:39:11;;;;;;;188.15;62.60;;;3.20;99.90;;;;;;5089415;28;20070;-77
2022/01/16 05:41:37;;;;;;;200.20;69.63;;;3.20;99.90;;;;;;5088780;28;20048;-77
2022/01/16 05:44:03;;;;;;;186.63;63.25;;;3.10;99.90;;;;;;5088831;28;20059;-78
2022/01/16 05:46:28;;;;;;;185.98;63.35;;;3.20;99.90;;;;;;5087949;28;20498;-78
2022/01/16 05:48:54;;;;;;;168.43;60.30;;;3.10;99.90;;;;;;5088871;28;20040;-79
2022/01/16 05:51:19;;;;;;;186.30;65.00;;;3.20;99.90;;;;;;5089010;28;20044;-78
2022/01/16 05:53:45;;;;;;;181.15;64.10;;;3.20;99.90;;;;;;5089086;28;20040;-78
2022/01/16 05:56:12;;;;;;;205.80;69.82;;;3.20;99.90;;;;;;5088907;28;20040;-76
2022/01/16 05:58:40;;;;;;;170.77;60.13;;;3.30;99.90;;;;;;5088467;28;20044;-77
2022/01/16 06:01:05;;;;;;;198.13;69.10;;;3.40;99.90;;;;;;5087936;28;20107;-77
2022/01/16 06:03:31;;;;;;;166.68;61.72;;;3.30;99.90;;;;;;5088627;28;20075;-77
2022/01/16 06:05:57;;;;;;;180.90;66.88;;;3.30;99.90;;;;;;5088753;28;20401;-78
2022/01/16 06:08:22;;;;;;;189.23;66.63;;;3.20;99.90;;;;;;5088470;28;20040;-78
2022/01/16 06:10:48;;;;;;;186.20;66.22;;;3.30;99.90;;;;;;5088548;28;20046;-77
2022/01/16 06:13:13;;;;;;;177.82;63.53;;;3.40;99.90;;;;;;5070113;28;20079;-73
2022/01/16 06:15:40;;;;;;;177.20;63.08;;;3.30;99.90;;;;;;5087949;28;20028;-78
2022/01/16 06:18:06;;;;;;;198.82;64.65;;;3.40;99.90;;;;;;5088751;28;20044;-77
2022/01/16 06:20:32;;;;;;;183.70;66.40;;;3.30;99.90;;;;;;5070170;28;20040;-78
2022/01/16 06:22:58;;;;;;;178.98;67.97;;;3.30;99.90;;;;;;5088143;28;20375;-78
2022/01/16 06:25:24;;;;;;;202.85;68.63;;;3.50;99.90;;;;;;5088034;28;20036;-78
2022/01/16 06:27:50;;;;;;;173.35;64.18;;;3.50;99.90;;;;;;5088533;28;20051;-77
2022/01/16 06:30:16;;;;;;;180.82;63.58;;;3.50;99.90;;;;;;5087077;28;20048;-78
2022/01/16 06:32:42;;;;;;;182.02;64.07;;;3.50;99.90;;;;;;5088262;28;20028;-78
2022/01/16 06:35:09;;;;;;;189.10;67.30;;;3.50;99.90;;;;;;5088151;28;20558;-78
2022/01/16 06:37:35;;;;;;;155.77;62.20;;;3.50;99.90;;;;;;5087600;28;20063;-79
2022/01/16 06:40:01;;;;;;;163.05;65.70;;;3.60;99.90;;;;;;5088017;28;20076;-78
2022/01/16 06:42:27;;;;;;;174.52;61.30;;;3.60;99.90;;;;;;5087693;28;20160;-78
2022/01/16 06:44:53;;;;;;;167.60;65.38;;;3.60;99.90;;;;;;5086853;28;20059;-77
2022/01/16 06:47:19;;;;;;;173.95;63.70;;;3.70;99.90;;;;;;5087488;28;20040;-78
2022/01/16 06:49:44;;;;;;;167.32;65.88;;;3.70;99.90;;;;;;5087901;28;20297;-77
2022/01/16 06:52:10;;;;;;;173.77;69.68;;;3.80;99.90;;;;;;5087832;28;20093;-77
2022/01/16 06:54:36;;;;;;;171.13;66.57;;;3.80;99.90;;;;;;5087517;28;20633;-78
2022/01/16 06:57:01;;;;;;;166.05;68.13;;;3.90;99.90;;;;;;5087958;28;20433;-78
2022/01/16 06:59:27;;;;;;;179.63;69.25;;;3.90;99.90;;;;;;5068199;28;20044;-77
2022/01/16 07:01:53;;;;;;;148.43;62.17;;;3.90;99.90;;;;;;5087657;28;20036;-77
2022/01/16 07:04:18;;;;;;;177.23;67.88;;;3.90;99.90;;;;;;5087261;28;20109;-77
2022/01/16 07:06:44;;;;;;;154.02;63.67;;;3.90;99.90;;;;;;5087539;28;20035;-78
2022/01/16 07:09:10;;;;;;;174.85;64.93;;;4.00;99.90;;;;;;5087686;28;20024;-77
2022/01/16 07:11:36;;;;;;;161.27;63.35;;;4.00;99.90;;;;;;5087428;28;20048;-78
2022/01/16 07:14:01;;;;;;;157.13;63.72;;;4.10;99.90;;;;;;5087359;28;20490;-78
2022/01/16 07:16:27;;;;;;;149.20;59.60;;;4.00;99.90;;;;;;5086336;28;20036;-77
2022/01/16 07:18:52;;;;;;;151.98;61.92;;;4.10;99.90;;;;;;5087398;28;20474;-77
2022/01/16 07:21:18;;;;;;;144.70;62.03;;;4.00;99.90;;;;;;5087024;28;20490;-76
2022/01/16 07:23:45;;;;;;;141.43;59.33;;;4.10;99.90;;;;;;5087070;28;20040;-72
2022/01/16 07:26:14;;;;;;;164.43;64.57;;;4.20;99.90;;;;;;5087846;28;20479;-78
2022/01/16 07:28:40;;;;;;;149.60;58.65;;;4.10;99.90;;;;;;5087559;28;20446;-77
2022/01/16 07:31:05;;;;;;;132.55;61.58;;;4.20;99.90;;;;;;5086311;28;20068;-77
2022/01/16 07:33:31;;;;;;;129.25;55.45;;;4.20;99.90;;;;;;5086633;28;20089;-78
2022/01/16 07:35:57;;;;;;;132.63;58.95;;;4.20;99.90;;;;;;5073231;28;20504;-76
2022/01/16 07:38:22;;;;;;;130.07;56.15;;;4.30;99.90;;;;;;5091392;28;20436;-78
2022/01/16 07:40:48;;;;;;;130.82;56.90;;;4.30;99.90;;;;;;5091627;28;20062;-78
2022/01/16 07:43:14;;;;;;;135.32;57.72;;;4.40;99.90;;;;;;5073520;28;20050;-73
2022/01/16 07:45:40;;;;;;;118.47;53.70;;;4.30;99.90;;;;;;5090623;28;20080;-77
2022/01/16 07:48:07;;;;;;;117.78;55.42;;;4.30;99.90;;;;;;5091325;28;20055;-78
2022/01/16 07:50:35;;;;;;;116.55;56.30;;;4.20;99.90;;;;;;5090811;28;20044;-79
2022/01/16 07:53:00;;;;;;;105.15;52.72;;;4.30;99.90;;;;;;5091246;28;20252;-77
2022/01/16 07:55:26;;;;;;;98.68;53.42;;;4.40;99.90;;;;;;5072861;28;20036;-77
2022/01/16 07:57:56;;;;;;;110.63;52.55;;;4.40;99.90;;;;;;5091068;28;20123;-78
2022/01/16 08:00:22;;;;;;;99.03;52.20;;;4.30;99.90;;;;;;5089926;28;20047;-78
2022/01/16 08:02:49;;;;;;;101.18;50.33;;;4.40;99.90;;;;;;5090719;28;20051;-78
2022/01/16 08:05:16;;;;;;;88.22;49.05;;;4.40;99.90;;;;;;5090533;28;20122;-77
2022/01/16 08:07:42;;;;;;;99.53;49.00;;;4.50;99.90;;;;;;5091097;28;20044;-78
2022/01/16 08:10:08;;;;;;;82.53;48.35;;;4.60;99.90;;;;;;5090717;28;20437;-78
2022/01/16 08:12:34;;;;;;;92.22;45.97;;;4.60;99.90;;;;;;5090486;28;20077;-79
2022/01/16 08:15:00;;;;;;;96.03;46.88;;;4.70;99.90;;;;;;5090367;28;20070;-78
2022/01/16 08:17:26;;;;;;;78.72;45.88;;;4.70;99.90;;;;;;5090370;28;20040;-77
2022/01/16 08:19:51;;;;;;;84.20;48.38;;;4.80;99.90;;;;;;5090412;28;20093;-78
2022/01/16 08:22:17;;;;;;;80.53;48.88;;;4.70;99.90;;;;;;5072155;28;20040;-76
2022/01/16 08:24:42;;;;;;;71.28;44.28;;;4.70;99.90;;;;;;5072969;28;20509;-78
2022/01/16 08:27:08;;;;;;;79.30;45.30;;;4.80;99.90;;;;;;5090491;28;20043;-76
2022/01/16 08:29:34;;;;;;;75.22;42.42;;;4.80;99.90;;;;;;5089879;28;20047;-77
2022/01/16 08:31:59;;;;;;;79.55;41.72;;;4.80;99.90;;;;;;5072258;28;20062;-77
2022/01/16 08:34:25;;;;;;;69.57;40.35;;;4.80;99.90;;;;;;5090535;28;20047;-78
2022/01/16 08:36:51;;;;;;;58.53;40.55;;;4.90;99.90;;;;;;5072521;28;20052;-77
2022/01/16 08:39:16;;;;;;;60.13;35.75;;;5.00;99.90;;;;;;5089911;28;20296;-78
2022/01/16 08:41:42;;;;;;;65.38;37.38;;;5.00;99.90;;;;;;5090613;28;20037;-77
2022/01/16 08:44:07;;;;;;;61.85;36.75;;;5.10;99.90;;;;;;5088921;28;20125;-77
2022/01/16 08:46:33;;;;;;;54.90;34.45;;;5.10;99.90;;;;;;5071190;28;20505;-77
2022/01/16 08:49:00;;;;;;;57.20;33.03;;;5.20;99.90;;;;;;5089580;28;20474;-76
2022/01/16 08:51:26;;;;;;;52.60;33.20;;;5.10;99.90;;;;;;5089937;28;20047;-77
2022/01/16 08:53:52;;;;;;;59.10;33.13;;;5.10;99.90;;;;;;5089673;28;20044;-77
2022/01/16 08:56:17;;;;;;;57.85;31.92;;;5.20;99.90;;;;;;5089582;28;20036;-77
2022/01/16 08:58:43;;;;;;;56.60;31.73;;;5.20;99.90;;;;;;5090218;28;20113;-79
2022/01/16 09:01:08;;;;;;;67.15;34.58;;;5.30;99.90;;;;;;5089588;28;20562;-79
2022/01/16 09:03:34;;;;;;;47.90;31.80;;;5.30;99.90;;;;;;5089452;28;20067;-77
2022/01/16 09:06:00;;;;;;;49.70;33.78;;;5.40;99.90;;;;;;5071450;28;20044;-79
2022/01/16 09:08:25;;;;;;;52.92;31.50;;;5.50;99.90;;;;;;5071139;28;20405;-78
2022/01/16 09:10:52;;;;;;;56.78;31.58;;;5.40;99.90;;;;;;5089870;28;20044;-77
2022/01/16 09:13:18;;;;;;;49.70;31.55;;;5.50;99.90;;;;;;5089269;28;20051;-77
2022/01/16 09:15:47;;;;;;;48.78;30.65;;;5.50;99.90;;;;;;5088550;28;20035;-77
2022/01/16 09:18:13;;;;;;;49.70;30.80;;;5.60;99.90;;;;;;5089639;28;20448;-77
2022/01/16 09:20:39;;;;;;;46.50;29.20;;;5.60;99.90;;;;;;5089676;28;20502;-77
2022/01/16 09:23:05;;;;;;;48.28;30.33;;;5.60;99.90;;;;;;5089877;28;20036;-79
2022/01/16 09:25:30;;;;;;;46.78;30.92;;;5.70;99.90;;;;;;5071390;28;20586;-76
2022/01/16 09:27:57;;;;;;;44.55;29.15;;;5.70;99.90;;;;;;5089198;28;20047;-76
2022/01/16 09:30:23;;;;;;;49.42;28.33;;;5.70;99.90;;;;;;5088157;28;20040;-77
2022/01/16 09:32:49;;;;;;;43.05;27.85;;;5.80;99.90;;;;;;5088709;28;20044;-76
2022/01/16 09:35:14;;;;;;;45.67;26.60;;;5.80;99.90;;;;;;5089279;28;20043;-75
2022/01/16 09:37:41;;;;;;;43.75;26.80;;;5.80;99.90;;;;;;5071309;28;20136;-76
2022/01/16 09:40:08;;;;;;;54.65;28.63;;;5.80;99.90;;;;;;5089031;28;20044;-77
2022/01/16 09:42:34;;;;;;;44.08;27.63;;;5.90;99.90;;;;;;5088838;28;20471;-76
2022/01/16 09:45:01;;;;;;;49.22;29.48;;;5.90;99.90;;;;;;5087819;28;20067;-77
2022/01/16 09:47:26;;;;;;;49.97;25.25;;;6.00;99.90;;;;;;5088310;28;20093;-77
2022/01/16 09:49:52;;;;;;;50.28;27.92;;;5.90;99.90;;;;;;5088814;28;20048;-77
2022/01/16 09:52:18;;;;;;;50.85;25.73;;;6.00;99.90;;;;;;5069767;28;20106;-77
2022/01/16 09:54:44;;;;;;;42.67;25.08;;;6.00;99.90;;;;;;5088673;28;20112;-75
2022/01/16 09:57:12;;;;;;;46.72;26.95;;;6.00;99.90;;;;;;5088147;28;20600;-77
2022/01/16 09:59:38;;;;;;;38.92;25.10;;;6.00;99.90;;;;;;5087369;28;20158;-76
2022/01/16 10:02:05;;;;;;;51.45;29.65;;;6.10;99.90;;;;;;5070182;28;20043;-76
2022/01/16 10:04:36;;;;;;;45.00;27.48;;;6.00;99.90;;;;;;5088083;28;20040;-76
2022/01/16 10:07:05;;;;;;;50.47;24.88;;;6.10;99.90;;;;;;5088255;28;20043;-76
2022/01/16 10:09:34;;;;;;;50.47;25.23;;;6.00;99.90;;;;;;5088172;28;20066;-77
2022/01/16 10:12:03;;;;;;;42.10;24.48;;;6.10;99.90;;;;;;5088273;28;20351;-77
2022/01/16 10:14:30;;;;;;;41.47;25.55;;;6.10;99.90;;;;;;5086950;28;20040;-76
2022/01/16 10:16:56;;;;;;;41.85;20.92;;;6.10;99.90;;;;;;5088636;28;20398;-77
2022/01/16 10:19:28;;;;;;;39.13;21.05;;;6.10;99.90;;;;;;5088211;28;20048;-76
2022/01/16 10:22:03;;;;;;;38.13;22.20;;;6.20;99.90;;;;;;5088094;28;20044;-76
2022/01/16 10:24:30;;;;;;;38.13;22.38;;;6.10;99.90;;;;;;5069770;28;20040;-76
2022/01/16 10:27:08;;;;;;;41.20;20.77;;;6.10;99.90;;;;;;5087914;28;20379;-77
2022/01/16 10:29:49;;;;;;;46.50;20.25;;;6.20;99.90;;;;;;5086819;28;20040;-77
2022/01/16 10:32:14;;;;;;;;;;;6.20;99.90;;;;;;5088291;28;20041;-76
2022/01/16 10:34:41;;;;;;;36.85;20.00;;;6.20;99.90;;;;;;5088222;28;20097;-76
2022/01/16 10:37:30;;;;;;;34.15;19.30;;;6.20;99.90;;;;;;5069778;28;20075;-76
2022/01/16 10:39:56;;;;;;;35.13;19.35;;;6.20;99.90;;;;;;5087944;28;20043;-76
2022/01/16 10:42:22;;;;;;;29.92;17.83;;;6.20;99.90;;;;;;5087475;28;20044;-78
2022/01/16 10:45:08;;;;;;;28.52;15.38;;;6.20;99.90;;;;;;5086858;28;20056;-76
2022/01/16 10:47:35;;;;;;;31.40;18.67;;;6.30;99.90;;;;;;5087437;28;20048;-78
2022/01/16 10:50:10;;;;;;;29.15;15.98;;;6.20;99.90;;;;;;5087730;28;20043;-77
2022/01/16 10:53:01;;;;;;;26.52;15.57;;;6.20;99.90;;;;;;5087280;28;20044;-77
2022/01/16 10:55:43;;;;;;;32.60;16.90;;;6.30;99.90;;;;;;5087478;28;20387;-78
2022/01/16 10:58:15;;;;;;;26.70;15.55;;;6.20;99.90;;;;;;5087645;28;20097;-77
2022/01/16 11:00:54;;;;;;;36.17;15.93;;;6.30;99.90;;;;;;5086744;28;20509;-78
2022/01/16 11:03:21;;;;;;;22.13;12.15;;;6.30;99.90;;;;;;5087261;28;20379;-77
2022/01/16 11:05:49;;;;;;;27.02;13.82;;;6.30;99.90;;;;;;5087541;28;20043;-77
2022/01/16 11:08:20;;;;;;;39.00;14.35;;;6.30;99.90;;;;;;5087065;28;20526;-77
2022/01/16 11:10:48;;;;;;;27.30;12.43;;;6.30;99.90;;;;;;5087282;28;20067;-77
2022/01/16 11:13:19;;;;;;;53.00;15.73;;;6.30;99.90;;;;;;5086881;28;20077;-77
2022/01/16 11:15:48;;;;;;;27.50;13.18;;;6.30;99.90;;;;;;5068303;28;20559;-77
2022/01/16 11:18:15;;;;;;;20.88;11.50;;;6.30;99.90;;;;;;5087388;28;20048;-76
2022/01/16 11:20:45;;;;;;;29.35;12.57;;;6.40;99.90;;;;;;5087532;28;20036;-76
2022/01/16 11:25:39;;;;;;;33.03;13.68;;;6.30;99.90;;;;;;5086830;28;20048;-76
2022/01/16 11:28:08;;;;;;;31.20;12.73;;;6.40;99.90;;;;;;5069362;28;20413;-77
2022/01/16 11:30:38;;;;;;;25.60;10.00;;;6.40;99.90;;;;;;5085968;28;20485;-78
2022/01/16 11:33:04;;;;;;;23.88;10.75;;;6.50;99.90;;;;;;5086974;28;20141;-76
2022/01/16 11:35:32;;;;;;;24.45;10.45;;;6.50;99.90;;;;;;5086994;28;20044;-78
2022/01/16 11:37:58;;;;;;;19.25;9.73;;;6.50;99.90;;;;;;5088098;28;20048;-78
2022/01/16 11:40:37;;;;;;;37.08;12.10;;;6.50;99.90;;;;;;5087433;28;20066;-78
2022/01/16 11:43:14;;;;;;;22.88;10.75;;;6.60;99.90;;;;;;5086856;28;20516;-77
2022/01/16 11:45:47;;;;;;;24.48;11.05;;;6.50;99.90;;;;;;5068333;28;20060;-78
2022/01/16 11:48:16;;;;;;;28.05;10.20;;;6.60;99.90;;;;;;5087283;28;20447;-78
2022/01/16 11:50:42;;;;;;;18.38;9.10;;;6.60;99.90;;;;;;5087510;28;20051;-78
2022/01/16 11:53:07;;;;;;;30.80;11.15;;;6.70;99.90;;;;;;5086650;28;20040;-77
2022/01/16 11:55:34;;;;;;;20.45;11.30;;;6.60;99.90;;;;;;5086862;28;20112;-78
2022/01/16 11:58:01;;;;;;;22.33;11.27;;;6.70;99.90;;;;;;5086919;28;20051;-78
2022/01/16 12:00:43;;;;;;;21.75;11.38;;;6.70;99.90;;;;;;5085655;28;20048;-76
2022/01/16 12:03:37;;;;;;;25.48;10.52;;;6.80;99.90;;;;;;5087263;28;20055;-79
2022/01/16 12:06:35;;;;;;;18.13;8.88;;;6.70;99.90;;;;;;5087167;28;20040;-78
2022/01/16 12:09:03;;;;;;;18.23;8.20;;;6.80;99.90;;;;;;5086826;28;20481;-77
2022/01/16 12:11:36;;;;;;;22.15;8.63;;;6.80;99.90;;;;;;5086691;28;20445;-79
2022/01/16 12:14:02;;;;;;;20.08;9.02;;;6.80;99.90;;;;;;5067732;28;20409;-79
2022/01/16 12:16:33;;;;;;;15.00;9.43;;;6.80;99.90;;;;;;5086749;28;20050;-77
2022/01/16 12:19:36;;;;;;;14.63;8.02;;;6.80;99.90;;;;;;5086796;28;20502;-79
2022/01/16 12:22:03;;;;;;;30.30;10.48;;;6.80;99.90;;;;;;5090960;28;20047;-78
2022/01/16 12:24:35;;;;;;;23.58;9.13;;;6.80;99.90;;;;;;5090342;28;20040;-79
2022/01/16 12:27:21;;;;;;;30.52;11.55;;;6.80;99.90;;;;;;5090692;28;20047;-79
2022/01/16 12:30:23;;;;;;;25.25;10.13;;;6.80;99.90;;;;;;5089496;28;20120;-77
2022/01/16 12:33:08;;;;;;;25.15;10.00;;;6.80;99.90;;;;;;5072468;28;20044;-79
2022/01/16 12:35:55;;;;;;;16.48;8.13;;;6.80;99.90;;;;;;5090559;28;20058;-79
2022/01/16 12:38:29;;;;;;;16.92;8.98;;;6.80;99.90;;;;;;5090229;28;20059;-79
2022/01/16 12:40:58;;;;;;;20.95;9.93;;;6.80;99.90;;;;;;5090703;28;20160;-79
2022/01/16 12:43:30;;;;;;;18.58;11.10;;;6.80;99.90;;;;;;5089196;28;20044;-79
2022/01/16 12:45:57;;;;;;;41.10;11.23;;;6.80;99.90;;;;;;5071958;28;20149;-79
2022/01/16 12:48:22;;;;;;;20.40;8.90;;;6.80;99.90;;;;;;5071766;28;20295;-79
2022/01/16 12:50:48;;;;;;;21.60;10.38;;;6.80;99.90;;;;;;5089953;28;20486;-78
2022/01/16 12:53:33;;;;;;;19.77;9.55;;;6.80;99.90;;;;;;5071352;28;20059;-78
2022/01/16 12:56:34;;;;;;;21.00;8.65;;;6.80;99.90;;;;;;5089987;28;20539;-78
2022/01/16 12:59:11;;;;;;;;;;;6.80;99.90;;;;;;5053711;28;20498;-78
2022/01/16 13:02:07;;;;;;;18.50;8.50;;;6.80;99.90;;;;;;5089863;28;20332;-77
2022/01/16 13:04:36;;;;;;;22.83;10.35;;;6.80;99.90;;;;;;5050921;28;20106;-78
2022/01/16 13:07:15;;;;;;;20.40;9.65;;;6.80;99.90;;;;;;5071948;28;20059;-78
2022/01/16 13:09:40;;;;;;;27.58;10.77;;;6.80;99.90;;;;;;5090235;28;20036;-79
2022/01/16 13:12:12;;;;;;;23.98;9.70;;;6.80;99.90;;;;;;5089819;28;20180;-78
2022/01/16 13:14:40;;;;;;;20.55;9.57;;;6.80;99.90;;;;;;5088520;28;20043;-76
2022/01/16 13:17:08;;;;;;;30.15;9.77;;;6.80;99.90;;;;;;5089696;28;20075;-77
2022/01/16 13:19:52;;;;;;;18.90;8.40;;;6.80;99.90;;;;;;5089511;28;20040;-77
2022/01/16 13:22:26;;;;;;;22.50;9.73;;;6.80;99.90;;;;;;5089332;28;20447;-77
2022/01/16 13:25:03;;;;;;;20.50;9.88;;;6.80;99.90;;;;;;5089566;28;20050;-79
2022/01/16 13:27:33;;;;;;;30.77;9.73;;;6.80;99.90;;;;;;5071038;28;20055;-76